createdAt,value
2022-09-07T00:46:33.121Z,25.00
2022-09-07T00:49:08.258Z,25.00
2022-09-07T00:51:43.351Z,25.00
2022-09-07T00:54:17.244Z,25.00
2022-09-07T00:56:49.364Z,25.00
2022-09-07T00:59:23.186Z,25.00
2022-09-07T01:46:16.109Z,24.80
2022-09-07T01:48:45.866Z,24.80
2022-09-07T01:51:14.586Z,24.80
2022-09-07T01:53:49.738Z,24.80
2022-09-07T01:56:23.310Z,24.90
2022-09-07T01:58:57.118Z,24.90
2022-09-07T02:46:01.402Z,24.80
2022-09-07T02:48:39.760Z,24.80
2022-09-07T02:51:18.765Z,24.80
2022-09-07T02:54:16.855Z,24.80
2022-09-07T02:57:00.732Z,24.90
2022-09-07T02:59:45.916Z,24.90
2022-09-07T04:30:55.238Z,25.00
2022-09-07T04:33:23.559Z,25.00
2022-09-07T04:35:52.813Z,25.00
2022-09-07T04:38:21.204Z,25.00
2022-09-07T04:40:49.372Z,25.00
2022-09-07T04:43:17.566Z,25.00
2022-09-07T04:45:45.786Z,25.00
2022-09-07T04:48:15.280Z,25.00
2022-09-07T04:50:43.477Z,25.00
2022-09-07T04:53:11.680Z,25.00
2022-09-07T04:55:39.922Z,24.90
2022-09-07T04:58:08.103Z,24.90
2022-09-07T05:00:36.521Z,24.90
2022-09-07T05:03:04.663Z,24.90
2022-09-07T05:05:38.636Z,24.90
2022-09-07T05:08:07.086Z,24.80
2022-09-07T05:10:35.351Z,24.80
2022-09-07T05:13:03.757Z,24.80
2022-09-07T05:15:32.283Z,24.80
2022-09-07T05:18:00.458Z,24.80
2022-09-07T05:20:28.990Z,24.80
2022-09-07T05:22:59.596Z,24.80
2022-09-07T05:25:29.129Z,24.80
2022-09-07T05:27:57.329Z,24.80
2022-09-07T05:33:15.036Z,24.90
2022-09-07T05:35:44.197Z,24.90
2022-09-07T05:38:14.900Z,24.90
2022-09-07T05:40:44.165Z,24.90
2022-09-07T05:43:12.840Z,24.90
2022-09-07T05:45:41.135Z,24.90
2022-09-07T05:48:13.140Z,25.00
2022-09-07T05:50:53.548Z,25.00
2022-09-07T05:53:23.544Z,24.90
2022-09-07T05:55:51.948Z,25.00
2022-09-07T05:58:21.931Z,25.00
2022-09-07T06:00:50.268Z,24.90
2022-09-07T06:03:19.466Z,24.90
2022-09-07T06:05:47.836Z,24.90
2022-09-07T06:08:15.995Z,24.90
2022-09-07T06:10:45.760Z,24.90
2022-09-07T06:13:14.007Z,24.80
2022-09-07T06:15:42.178Z,24.80
2022-09-07T06:18:10.429Z,24.80
2022-09-07T06:20:38.662Z,24.80
2022-09-07T06:23:07.272Z,24.80
2022-09-07T06:25:35.495Z,24.80
2022-09-07T06:28:05.247Z,24.80
2022-09-07T06:30:33.849Z,24.80
2022-09-07T06:33:02.034Z,24.80
2022-09-07T06:35:30.205Z,24.80
2022-09-07T06:37:58.429Z,24.70
2022-09-07T06:40:26.647Z,24.70
2022-09-07T06:42:54.844Z,24.80
2022-09-07T06:45:24.390Z,24.80
2022-09-07T06:47:55.423Z,24.80
2022-09-07T06:50:23.883Z,24.80
2022-09-07T06:55:45.399Z,24.80
2022-09-07T06:58:13.711Z,24.80
2022-09-07T07:00:44.412Z,24.70
2022-09-07T07:03:13.012Z,24.70
2022-09-07T07:05:41.467Z,24.70
2022-09-07T07:08:09.923Z,24.70
2022-09-07T07:10:39.969Z,24.70
2022-09-07T07:13:08.201Z,24.70
2022-09-07T07:15:36.420Z,24.70
2022-09-07T07:18:20.204Z,24.70
2022-09-07T07:20:51.783Z,24.70
2022-09-07T07:23:20.066Z,24.70
2022-09-07T07:25:48.559Z,24.60
2022-09-07T07:31:09.934Z,24.70
2022-09-07T07:33:41.429Z,24.80
2022-09-07T07:36:15.521Z,24.80
2022-09-07T07:39:02.053Z,24.80
2022-09-07T07:44:21.690Z,24.90
2022-09-07T07:46:50.677Z,24.80
2022-09-07T07:49:20.452Z,24.90
2022-09-07T07:54:37.710Z,24.80
2022-09-07T07:57:06.860Z,24.80
2022-09-07T07:59:35.009Z,24.80
2022-09-07T08:02:05.030Z,24.80
2022-09-07T08:04:36.008Z,24.80
2022-09-07T08:07:10.105Z,24.80
2022-09-07T08:09:41.292Z,24.80
2022-09-07T08:12:11.213Z,24.80
2022-09-07T08:14:41.164Z,24.80
2022-09-07T08:17:11.034Z,24.80
2022-09-07T08:19:41.075Z,24.80
2022-09-07T08:22:10.055Z,24.80
2022-09-07T08:24:38.462Z,24.70
2022-09-07T08:27:07.186Z,24.80
2022-09-07T08:29:35.645Z,24.70
2022-09-07T08:32:06.536Z,24.70
2022-09-07T08:34:38.175Z,24.70
2022-09-07T08:37:07.962Z,24.80
2022-09-07T08:39:36.686Z,24.70
2022-09-07T08:42:39.404Z,24.80
2022-09-07T08:45:12.545Z,24.80
2022-09-07T08:47:45.438Z,24.80
2022-09-07T08:50:21.836Z,24.80
2022-09-07T08:52:56.434Z,24.80
2022-09-07T08:55:29.735Z,24.70
2022-09-07T08:58:14.556Z,24.80
2022-09-07T09:06:10.905Z,24.80
2022-09-07T09:06:45.299Z,24.70
2022-09-07T09:09:26.277Z,24.70
2022-09-07T09:12:09.157Z,24.70
2022-09-07T09:14:48.169Z,24.70
2022-09-07T09:17:29.399Z,24.70
2022-09-07T09:20:09.025Z,24.70
2022-09-07T09:22:37.270Z,24.70
2022-09-07T09:25:20.133Z,24.70
2022-09-07T09:27:49.122Z,24.70
2022-09-07T09:30:20.974Z,24.70
2022-09-07T09:32:52.756Z,24.70
2022-09-07T09:35:28.484Z,24.70
2022-09-07T09:37:57.629Z,24.80
2022-09-07T09:40:31.219Z,24.80
2022-09-07T09:43:05.824Z,24.80
2022-09-07T09:48:35.959Z,24.80
2022-09-07T09:54:05.982Z,24.80
2022-09-07T09:56:44.866Z,24.80
2022-09-07T10:05:35.243Z,24.80
2022-09-07T10:08:04.740Z,24.80
2022-09-07T10:10:32.878Z,24.80
2022-09-07T10:13:02.492Z,24.80
2022-09-07T10:15:40.127Z,24.80
2022-09-07T10:18:18.795Z,24.90
2022-09-07T10:20:46.965Z,24.90
2022-09-07T10:23:23.462Z,24.90
2022-09-07T10:25:51.879Z,24.90
2022-09-07T10:28:23.933Z,24.90
2022-09-07T10:31:15.402Z,24.90
2022-09-07T10:36:49.639Z,24.90
2022-09-07T10:39:26.550Z,24.90
2022-09-07T10:42:04.598Z,24.90
2022-09-07T10:44:49.692Z,24.90
2022-09-07T10:47:31.394Z,24.90
2022-09-07T10:50:24.470Z,25.00
2022-09-07T10:53:23.540Z,25.00
2022-09-07T10:56:09.764Z,25.10
2022-09-07T10:59:06.845Z,25.10
2022-09-07T11:01:51.635Z,25.20
2022-09-07T11:04:40.174Z,25.30
2022-09-07T11:07:19.961Z,25.40
2022-09-07T11:10:00.315Z,25.50
2022-09-07T11:12:34.577Z,25.50
2022-09-07T11:15:17.780Z,25.50
2022-09-07T11:17:52.984Z,25.60
2022-09-07T11:20:30.899Z,25.60
2022-09-07T11:23:05.116Z,25.60
2022-09-07T11:25:41.015Z,25.70
2022-09-07T11:28:15.826Z,25.70
2022-09-07T11:30:47.810Z,25.80
2022-09-07T11:33:23.069Z,25.80
2022-09-07T11:35:56.330Z,25.80
2022-09-07T11:38:29.436Z,25.80
2022-09-07T11:41:14.057Z,25.80
2022-09-07T11:43:47.200Z,25.80
2022-09-07T11:46:27.082Z,25.80
2022-09-07T11:48:59.993Z,25.80
2022-09-07T11:51:40.192Z,25.70
2022-09-07T11:54:29.993Z,25.80
2022-09-07T11:57:13.165Z,25.80
2022-09-07T11:59:55.310Z,25.80
2022-09-07T12:03:00.551Z,25.80
2022-09-07T12:06:01.970Z,25.80
2022-09-07T12:08:54.716Z,25.80
2022-09-07T12:11:56.980Z,25.80
2022-09-07T12:14:38.474Z,25.80
2022-09-07T12:17:26.036Z,25.80
2022-09-07T12:20:16.414Z,25.70
2022-09-07T12:23:05.255Z,25.60
2022-09-07T12:25:35.697Z,25.70
2022-09-07T12:28:04.269Z,25.70
2022-09-07T12:30:59.024Z,25.70
2022-09-07T12:33:33.498Z,25.70
2022-09-07T12:36:02.747Z,25.80
2022-09-07T12:39:09.288Z,25.80
2022-09-07T12:42:31.761Z,25.80
2022-09-07T12:44:39.972Z,25.70
2022-09-07T12:47:31.032Z,25.70
2022-09-07T12:50:30.348Z,25.70
2022-09-07T12:53:32.793Z,25.60
2022-09-07T12:56:29.697Z,25.60
2022-09-07T12:59:32.348Z,25.60
2022-09-07T13:02:18.172Z,25.60
2022-09-07T13:05:07.516Z,25.60
2022-09-07T13:08:10.595Z,25.40
2022-09-07T13:10:40.803Z,25.60
2022-09-07T13:20:18.643Z,25.60
2022-09-07T13:23:23.697Z,25.60
2022-09-07T13:25:59.978Z,25.60
2022-09-07T13:28:41.303Z,25.60
2022-09-07T13:31:48.688Z,25.60
2022-09-07T13:34:50.036Z,25.60
2022-09-07T13:37:22.748Z,25.60
2022-09-07T13:39:53.917Z,25.60
2022-09-07T13:42:25.956Z,25.60
2022-09-07T13:45:01.243Z,25.60
2022-09-07T13:47:52.143Z,25.70
2022-09-07T13:50:34.838Z,25.70
2022-09-07T13:53:46.479Z,25.70
2022-09-07T13:56:28.444Z,25.80
2022-09-07T13:58:57.298Z,25.80
2022-09-07T14:01:28.879Z,25.80
2022-09-07T14:04:00.399Z,25.70
2022-09-07T14:06:35.027Z,25.70
2022-09-07T14:09:07.049Z,25.70
2022-09-07T14:11:44.848Z,25.70
2022-09-07T14:14:22.219Z,25.60
2022-09-07T14:16:58.606Z,25.60
2022-09-07T14:19:38.565Z,25.60
2022-09-07T14:22:12.201Z,25.60
2022-09-07T14:24:44.490Z,25.60
2022-09-07T14:27:25.141Z,25.50
2022-09-07T14:29:53.933Z,25.50
2022-09-07T14:32:27.228Z,25.50
2022-09-07T14:34:55.674Z,25.50
2022-09-07T14:37:24.308Z,25.50
2022-09-07T14:39:53.187Z,25.50
2022-09-07T14:42:24.516Z,25.50
2022-09-07T14:45:21.165Z,25.50
2022-09-07T14:47:53.586Z,25.50
2022-09-07T14:50:27.318Z,25.50
2022-09-07T14:55:47.447Z,25.50
2022-09-07T14:58:25.641Z,25.40
2022-09-07T15:04:00.788Z,25.30
2022-09-07T15:09:35.593Z,25.50
2022-09-07T15:12:13.558Z,25.60
2022-09-07T15:14:41.807Z,25.60
2022-09-07T15:20:43.339Z,25.60
2022-09-07T15:23:14.358Z,25.60
2022-09-07T15:25:49.646Z,25.60
2022-09-07T15:34:12.560Z,25.50
2022-09-07T15:36:43.786Z,25.50
2022-09-07T15:39:19.034Z,25.50
2022-09-07T15:41:48.758Z,25.50
2022-09-07T15:44:22.840Z,25.50
2022-09-07T15:49:46.065Z,25.50
2022-09-07T15:52:20.572Z,25.50
2022-09-07T15:54:49.113Z,25.50
2022-09-07T16:00:08.985Z,25.50
2022-09-07T16:05:35.945Z,25.50
2022-09-07T16:10:55.376Z,25.50
2022-09-07T16:13:24.745Z,25.50
2022-09-07T16:15:53.062Z,25.50
2022-09-07T16:18:21.394Z,25.60
2022-09-07T16:20:52.649Z,25.70
2022-09-07T16:23:22.946Z,25.70
2022-09-07T16:25:59.280Z,25.70
2022-09-07T16:28:29.638Z,25.70
2022-09-07T16:30:58.443Z,25.70
2022-09-07T16:33:36.017Z,25.60
2022-09-07T16:36:09.391Z,25.60
2022-09-07T16:38:47.447Z,25.60
2022-09-07T16:41:17.755Z,25.60
2022-09-07T16:43:46.481Z,25.60
2022-09-07T16:46:17.328Z,25.70
2022-09-07T16:48:45.950Z,25.70
2022-09-07T16:51:18.705Z,25.80
2022-09-07T16:53:49.839Z,25.80
2022-09-07T16:56:20.479Z,25.70
2022-09-07T16:58:51.427Z,25.80
2022-09-07T17:01:22.976Z,25.70
2022-09-07T17:03:51.740Z,25.70
2022-09-07T17:06:22.168Z,25.70
2022-09-07T17:08:52.488Z,25.70
2022-09-07T17:11:22.966Z,25.70
2022-09-07T17:13:53.554Z,25.70
2022-09-07T17:16:24.017Z,25.70
2022-09-07T17:21:41.863Z,25.70
2022-09-07T17:24:12.701Z,25.70
2022-09-07T17:26:42.565Z,25.70
2022-09-07T17:29:13.235Z,25.70
2022-09-07T17:34:30.350Z,25.80
2022-09-07T17:37:01.169Z,25.70
2022-09-07T17:39:31.247Z,25.60
2022-09-07T17:41:59.441Z,25.60
2022-09-07T17:44:33.297Z,25.60
2022-09-07T17:47:04.245Z,25.60
2022-09-07T17:49:32.382Z,25.80
2022-09-07T17:52:00.967Z,25.90
2022-09-07T17:54:30.583Z,25.90
2022-09-07T17:56:58.705Z,25.90
2022-09-07T18:02:15.272Z,25.90
2022-09-07T18:04:43.653Z,25.90
2022-09-07T18:07:11.902Z,25.90
2022-09-07T18:09:41.312Z,25.90
2022-09-07T18:12:09.477Z,25.90
2022-09-07T18:14:37.763Z,26.00
2022-09-07T18:17:06.250Z,25.90
2022-09-07T18:19:34.369Z,25.90
2022-09-07T18:22:04.124Z,25.90
2022-09-07T18:24:33.267Z,25.90
2022-09-07T18:27:07.758Z,25.90
2022-09-07T18:29:36.164Z,25.90
2022-09-07T18:32:08.687Z,25.90
2022-09-07T18:34:38.091Z,25.90
2022-09-07T18:37:07.276Z,25.90
2022-09-07T18:39:36.003Z,25.90
2022-09-07T18:42:07.625Z,25.90
2022-09-07T18:47:28.703Z,25.90
2022-09-07T18:49:58.356Z,25.90
2022-09-07T18:55:18.736Z,26.00
2022-09-07T18:57:50.696Z,26.00
2022-09-07T19:00:21.935Z,26.00
2022-09-07T19:02:52.940Z,26.00
2022-09-07T19:08:12.389Z,26.00
2022-09-07T19:10:41.752Z,26.00
2022-09-07T19:13:14.586Z,25.90
2022-09-07T19:15:44.447Z,25.90
2022-09-07T19:18:13.780Z,25.90
2022-09-07T19:20:42.452Z,25.90
2022-09-07T19:23:10.910Z,25.80
2022-09-07T19:25:42.957Z,25.80
2022-09-07T19:28:15.044Z,25.80
2022-09-07T19:30:43.227Z,25.80
2022-09-07T19:33:12.415Z,25.80
2022-09-07T19:35:42.238Z,25.80
2022-09-07T19:38:13.026Z,25.80
2022-09-07T19:40:43.150Z,25.70
2022-09-07T19:43:14.815Z,25.70
2022-09-07T19:45:45.637Z,25.80
2022-09-07T19:48:14.976Z,25.80
2022-09-07T19:50:44.999Z,25.70
2022-09-07T19:53:15.191Z,25.80
2022-09-07T19:55:44.941Z,25.70
2022-09-07T19:58:16.805Z,25.70
2022-09-07T20:00:46.150Z,25.70
2022-09-07T20:03:16.199Z,25.70
2022-09-07T20:05:46.889Z,25.70
2022-09-07T20:08:16.462Z,25.70
2022-09-07T20:10:46.891Z,25.60
2022-09-07T20:13:18.297Z,25.60
2022-09-07T20:15:48.603Z,25.60
2022-09-07T20:18:19.580Z,25.60
2022-09-07T20:20:48.972Z,25.60
2022-09-07T20:23:31.187Z,25.60
2022-09-07T20:26:03.561Z,25.60
2022-09-07T20:28:35.313Z,25.60
2022-09-07T20:31:08.709Z,25.60
2022-09-07T20:33:38.923Z,25.60
2022-09-07T20:36:11.288Z,25.60
2022-09-07T20:38:42.174Z,25.60
2022-09-07T20:41:16.570Z,25.60
2022-09-07T20:43:48.469Z,25.60
2022-09-07T20:46:19.408Z,25.60
2022-09-07T20:48:52.632Z,25.60
2022-09-07T20:51:23.834Z,25.60
2022-09-07T20:53:54.049Z,25.60
2022-09-07T20:56:28.230Z,25.60
2022-09-07T20:59:22.828Z,25.60
2022-09-07T21:01:57.110Z,25.60
2022-09-07T21:04:28.964Z,25.60
2022-09-07T21:06:58.044Z,25.60
2022-09-07T21:09:26.161Z,25.60
2022-09-07T21:11:57.177Z,25.60
2022-09-07T21:14:26.767Z,25.50
2022-09-07T21:16:55.340Z,25.50
2022-09-07T21:19:23.795Z,25.50
2022-09-07T21:24:46.845Z,25.50
2022-09-07T21:27:18.311Z,25.50
2022-09-07T21:30:20.338Z,25.50
2022-09-07T21:32:54.093Z,25.50
2022-09-07T21:35:22.813Z,25.50
2022-09-07T21:37:50.978Z,25.60
2022-09-07T21:40:19.624Z,25.60
2022-09-07T21:42:48.488Z,25.60
2022-09-07T21:45:18.698Z,25.60
2022-09-07T21:47:46.888Z,25.60
2022-09-07T21:50:15.528Z,25.60
2022-09-07T21:52:43.778Z,25.60
2022-09-07T21:55:12.072Z,25.60
2022-09-07T21:57:40.628Z,25.60
2022-09-07T22:00:11.897Z,25.60
2022-09-07T22:02:41.653Z,25.60
2022-09-07T22:05:10.811Z,25.60
2022-09-07T22:07:39.228Z,25.50
2022-09-07T22:10:09.691Z,25.60
2022-09-07T22:12:38.001Z,25.60
2022-09-07T22:15:07.513Z,25.50
2022-09-07T22:17:35.935Z,25.50
2022-09-07T22:20:06.655Z,25.50
2022-09-07T22:22:36.039Z,25.50
2022-09-07T22:25:05.491Z,25.50
2022-09-07T22:27:34.242Z,25.50
2022-09-07T22:30:03.137Z,25.50
2022-09-07T22:32:31.467Z,25.50
2022-09-07T22:34:59.892Z,25.60
2022-09-07T22:37:29.477Z,25.60
2022-09-07T22:39:57.780Z,25.60
2022-09-07T22:42:25.979Z,25.60
2022-09-07T22:44:55.092Z,25.60
2022-09-07T22:47:23.609Z,25.60
2022-09-07T22:49:51.960Z,25.60
2022-09-07T22:52:20.331Z,25.60
2022-09-07T22:54:50.075Z,25.60
2022-09-07T22:57:23.849Z,25.60
2022-09-07T22:59:52.492Z,25.60
2022-09-07T23:02:20.796Z,25.60
2022-09-07T23:04:49.898Z,25.60
2022-09-07T23:07:19.118Z,25.60
2022-09-07T23:09:49.407Z,25.60
2022-09-07T23:12:17.931Z,25.60
2022-09-07T23:14:46.259Z,25.60
2022-09-07T23:17:14.837Z,25.60
2022-09-07T23:19:43.072Z,25.50
2022-09-07T23:22:11.494Z,25.60
2022-09-07T23:24:41.622Z,25.60
2022-09-07T23:27:11.380Z,25.60
2022-09-07T23:29:39.989Z,25.60
2022-09-07T23:32:08.476Z,25.60
2022-09-07T23:34:37.791Z,25.60
2022-09-07T23:37:06.269Z,25.60
2022-09-07T23:39:38.408Z,25.60
2022-09-07T23:42:07.040Z,25.60
2022-09-07T23:44:36.690Z,25.60
2022-09-07T23:47:05.208Z,25.60
2022-09-07T23:49:33.570Z,25.60
2022-09-07T23:52:01.722Z,25.60
2022-09-07T23:54:37.263Z,25.60
2022-09-07T23:57:06.082Z,25.60
2022-09-07T23:59:36.573Z,25.60
